This is the latest recevied weather packets stored in our database for station/object NO9B. If no packets are shown the sender has not sent any weather packets the latest 10 day(s).
| Time | Temp. | Humidity | Pressure | Rain* | Wind** | Luminosity | Snow |
|---|---|---|---|---|---|---|---|
| 1787865471 | 25.56° C | 64% | 1018 hPa | 0 mm | - | 44 W/m² | - |
| 1787865165 | 26.11° C | 64% | 1017.8 hPa | 0 mm | - | 38 W/m² | - |
| 1787864862 | 26.11° C | 63% | 1017.8 hPa | 0 mm | - | 49 W/m² | - |
| 1787864562 | 26.67° C | 62% | 1017.7 hPa | 0 mm | - | 77 W/m² | - |
| 1787864257 | 26.67° C | 62% | 1017.9 hPa | 0 mm | - | 47 W/m² | - |
| 1787863951 | 27.22° C | 61% | 1017.8 hPa | 0 mm | - | 61 W/m² | - |
| 1787863650 | 27.78° C | 57% | 1017.6 hPa | 0 mm | - | 111 W/m² | - |
| 1787863348 | 28.89° C | 55% | 1017.6 hPa | 0 mm | - | 94 W/m² | - |
| 1787863045 | 29.44° C | 53% | 1017.8 hPa | 0 mm | - | 488 W/m² | - |
| 1787862740 | 29.44° C | 54% | 1017.7 hPa | 0 mm | - | 487 W/m² | - |
| 1787862440 | 30° C | 54% | 1017.8 hPa | 0 mm | - | 503 W/m² | - |
| 1787862135 | 29.44° C | 56% | 1017.8 hPa | 0 mm | - | 530 W/m² | - |
| 1787861830 | 28.89° C | 55% | 1017.7 hPa | 0 mm | - | 448 W/m² | - |
| 1787861528 | 29.44° C | 55% | 1017.9 hPa | 0 mm | - | 218 W/m² | - |
| 1787861223 | 28.89° C | 57% | 1017.8 hPa | 0 mm | - | 547 W/m² | - |
| 1787860922 | 27.78° C | 59% | 1018.2 hPa | 0 mm | - | 549 W/m² | - |
| 1787860617 | 26.67° C | 60% | 1017.8 hPa | 0 mm | - | 579 W/m² | - |
| 1787860312 | 27.22° C | 59% | 1017.8 hPa | 0 mm | - | 55 W/m² | - |
| 1787860007 | 27.78° C | 58% | 1017.8 hPa | 0 mm | - | 65 W/m² | - |
| 1787859703 | 27.78° C | 60% | 1017.8 hPa | 0 mm | - | 118 W/m² | - |
| 1787859403 | 27.22° C | 60% | 1017.7 hPa | 0 mm | - | 497 W/m² | - |
| 1787859098 | 27.22° C | 59% | 1017.7 hPa | 0 mm | - | 111 W/m² | - |
| 1787858794 | 27.22° C | 58% | 1017.7 hPa | 0 mm | - | 151 W/m² | - |
| 1787858490 | 27.78° C | 55% | 1017.6 hPa | 0 mm | - | 63 W/m² | - |
| 1787858189 | 27.78° C | 56% | 1017.6 hPa | 0 mm | - | 96 W/m² | - |
* Rain latest hour (hover to see other rain measurements)
** Current wind speed in m/s (hover to see current wind gust speed)